sensor_id;sensor_type;location;lat;lon;timestamp;P1;durP1;ratioP1;P2;durP2;ratioP2
70457;SDS011;57919;56.194;95.716;2022-10-16T00:03:28;36.33;;;14.50;;
70457;SDS011;57919;56.194;95.716;2022-10-16T00:13:31;85.82;;;33.92;;
70457;SDS011;57919;56.194;95.716;2022-10-16T00:23:34;143.73;;;51.10;;
70457;SDS011;57919;56.194;95.716;2022-10-16T00:33:36;140.00;;;49.20;;
70457;SDS011;57919;56.194;95.716;2022-10-16T00:53:54;84.77;;;32.90;;
70457;SDS011;57919;56.194;95.716;2022-10-16T01:03:56;94.13;;;35.70;;
70457;SDS011;57919;56.194;95.716;2022-10-16T01:13:59;153.10;;;58.43;;
70457;SDS011;57919;56.194;95.716;2022-10-16T01:24:49;159.25;;;81.57;;
70457;SDS011;57919;56.194;95.716;2022-10-16T01:34:51;161.37;;;76.57;;
70457;SDS011;57919;56.194;95.716;2022-10-16T01:44:57;137.03;;;65.03;;
70457;SDS011;57919;56.194;95.716;2022-10-16T01:55:02;104.70;;;45.20;;
70457;SDS011;57919;56.194;95.716;2022-10-16T02:05:16;72.47;;;32.20;;
70457;SDS011;57919;56.194;95.716;2022-10-16T02:15:37;60.83;;;28.80;;
70457;SDS011;57919;56.194;95.716;2022-10-16T02:25:40;75.40;;;33.25;;
70457;SDS011;57919;56.194;95.716;2022-10-16T02:35:44;61.60;;;28.00;;
70457;SDS011;57919;56.194;95.716;2022-10-16T02:45:49;62.53;;;30.40;;
70457;SDS011;57919;56.194;95.716;2022-10-16T02:55:51;32.67;;;16.67;;
70457;SDS011;57919;56.194;95.716;2022-10-16T03:05:53;28.87;;;14.03;;
70457;SDS011;57919;56.194;95.716;2022-10-16T03:15:55;31.23;;;16.23;;
70457;SDS011;57919;56.194;95.716;2022-10-16T03:25:57;47.88;;;25.88;;
70457;SDS011;57919;56.194;95.716;2022-10-16T03:36:00;39.70;;;18.13;;
70457;SDS011;57919;56.194;95.716;2022-10-16T03:46:01;30.63;;;14.63;;
70457;SDS011;57919;56.194;95.716;2022-10-16T03:56:03;90.90;;;47.57;;
70457;SDS011;57919;56.194;95.716;2022-10-16T04:06:06;38.60;;;18.30;;
70457;SDS011;57919;56.194;95.716;2022-10-16T04:16:07;30.17;;;16.15;;
70457;SDS011;57919;56.194;95.716;2022-10-16T04:26:09;57.47;;;25.80;;
70457;SDS011;57919;56.194;95.716;2022-10-16T04:36:11;27.43;;;13.10;;
70457;SDS011;57919;56.194;95.716;2022-10-16T04:46:13;24.95;;;11.65;;
70457;SDS011;57919;56.194;95.716;2022-10-16T04:56:15;24.90;;;10.73;;
70457;SDS011;57919;56.194;95.716;2022-10-16T05:06:17;22.77;;;9.47;;
70457;SDS011;57919;56.194;95.716;2022-10-16T05:16:19;25.48;;;11.73;;
70457;SDS011;57919;56.194;95.716;2022-10-16T05:26:21;24.73;;;10.60;;
70457;SDS011;57919;56.194;95.716;2022-10-16T05:36:23;29.90;;;12.13;;
70457;SDS011;57919;56.194;95.716;2022-10-16T05:46:25;26.40;;;13.00;;
70457;SDS011;57919;56.194;95.716;2022-10-16T05:56:26;28.77;;;13.03;;
70457;SDS011;57919;56.194;95.716;2022-10-16T06:06:28;25.52;;;12.43;;
70457;SDS011;57919;56.194;95.716;2022-10-16T06:16:35;13.63;;;6.20;;
70457;SDS011;57919;56.194;95.716;2022-10-16T06:26:38;19.27;;;8.93;;
70457;SDS011;57919;56.194;95.716;2022-10-16T06:36:40;11.63;;;4.67;;
70457;SDS011;57919;56.194;95.716;2022-10-16T06:46:44;18.50;;;10.33;;
70457;SDS011;57919;56.194;95.716;2022-10-16T06:56:46;13.05;;;6.63;;
70457;SDS011;57919;56.194;95.716;2022-10-16T07:06:48;10.73;;;5.13;;
70457;SDS011;57919;56.194;95.716;2022-10-16T07:16:50;18.50;;;6.80;;
70457;SDS011;57919;56.194;95.716;2022-10-16T07:26:52;27.73;;;12.90;;
70457;SDS011;57919;56.194;95.716;2022-10-16T07:36:54;22.33;;;10.13;;
70457;SDS011;57919;56.194;95.716;2022-10-16T07:46:56;20.60;;;8.53;;
70457;SDS011;57919;56.194;95.716;2022-10-16T07:56:59;20.57;;;7.97;;
70457;SDS011;57919;56.194;95.716;2022-10-16T08:07:00;16.23;;;7.40;;
70457;SDS011;57919;56.194;95.716;2022-10-16T08:17:02;24.45;;;11.98;;
70457;SDS011;57919;56.194;95.716;2022-10-16T08:27:05;14.87;;;6.53;;
70457;SDS011;57919;56.194;95.716;2022-10-16T08:37:07;28.13;;;10.67;;
70457;SDS011;57919;56.194;95.716;2022-10-16T08:47:22;24.17;;;10.77;;
70457;SDS011;57919;56.194;95.716;2022-10-16T08:57:28;27.43;;;14.37;;
70457;SDS011;57919;56.194;95.716;2022-10-16T09:18:01;75.67;;;38.20;;
70457;SDS011;57919;56.194;95.716;2022-10-16T09:28:12;32.53;;;15.37;;
70457;SDS011;57919;56.194;95.716;2022-10-16T09:38:25;35.37;;;13.73;;
70457;SDS011;57919;56.194;95.716;2022-10-16T09:48:38;36.20;;;17.40;;
70457;SDS011;57919;56.194;95.716;2022-10-16T09:58:50;52.15;;;23.63;;
70457;SDS011;57919;56.194;95.716;2022-10-16T10:19:22;95.23;;;38.50;;
70457;SDS011;57919;56.194;95.716;2022-10-16T10:50:59;178.53;;;72.33;;
70457;SDS011;57919;56.194;95.716;2022-10-16T11:01:01;179.83;;;66.43;;
70457;SDS011;57919;56.194;95.716;2022-10-16T11:21:18;136.02;;;55.38;;
70457;SDS011;57919;56.194;95.716;2022-10-16T11:31:38;140.13;;;52.13;;
70457;SDS011;57919;56.194;95.716;2022-10-16T11:41:49;160.80;;;57.97;;
70457;SDS011;57919;56.194;95.716;2022-10-16T11:52:11;160.77;;;69.78;;
70457;SDS011;57919;56.194;95.716;2022-10-16T12:03:08;463.77;;;212.50;;
70457;SDS011;57919;56.194;95.716;2022-10-16T12:13:33;432.93;;;203.43;;
70457;SDS011;57919;56.194;95.716;2022-10-16T12:23:37;452.48;;;210.00;;
70457;SDS011;57919;56.194;95.716;2022-10-16T12:34:03;407.70;;;168.17;;
70457;SDS011;57919;56.194;95.716;2022-10-16T12:44:05;477.20;;;207.33;;
70457;SDS011;57919;56.194;95.716;2022-10-16T13:35:34;640.70;;;280.80;;
70457;SDS011;57919;56.194;95.716;2022-10-16T13:45:37;802.93;;;367.33;;
70457;SDS011;57919;56.194;95.716;2022-10-16T13:55:39;729.88;;;341.35;;
70457;SDS011;57919;56.194;95.716;2022-10-16T14:06:15;1171.50;;;551.70;;
70457;SDS011;57919;56.194;95.716;2022-10-16T14:16:18;613.53;;;285.77;;
70457;SDS011;57919;56.194;95.716;2022-10-16T14:26:24;356.20;;;147.75;;
70457;SDS011;57919;56.194;95.716;2022-10-16T14:36:28;410.60;;;164.27;;
70457;SDS011;57919;56.194;95.716;2022-10-16T14:46:33;413.27;;;162.50;;
70457;SDS011;57919;56.194;95.716;2022-10-16T14:56:54;403.45;;;158.65;;
70457;SDS011;57919;56.194;95.716;2022-10-16T15:06:58;567.63;;;265.83;;
70457;SDS011;57919;56.194;95.716;2022-10-16T15:17:00;443.33;;;176.23;;
70457;SDS011;57919;56.194;95.716;2022-10-16T15:27:02;274.83;;;102.70;;
70457;SDS011;57919;56.194;95.716;2022-10-16T15:37:05;248.73;;;95.25;;
70457;SDS011;57919;56.194;95.716;2022-10-16T15:47:07;271.40;;;108.87;;
70457;SDS011;57919;56.194;95.716;2022-10-16T15:57:09;284.23;;;111.63;;
70457;SDS011;57919;56.194;95.716;2022-10-16T16:07:11;466.05;;;167.10;;
70457;SDS011;57919;56.194;95.716;2022-10-16T16:17:13;355.63;;;127.87;;
70457;SDS011;57919;56.194;95.716;2022-10-16T16:27:15;331.70;;;120.57;;
70457;SDS011;57919;56.194;95.716;2022-10-16T16:37:17;394.63;;;145.52;;
70457;SDS011;57919;56.194;95.716;2022-10-16T16:47:19;472.87;;;193.87;;
70457;SDS011;57919;56.194;95.716;2022-10-16T16:57:21;469.30;;;186.43;;
70457;SDS011;57919;56.194;95.716;2022-10-16T17:07:23;473.30;;;187.37;;
70457;SDS011;57919;56.194;95.716;2022-10-16T17:17:26;488.88;;;197.90;;
70457;SDS011;57919;56.194;95.716;2022-10-16T17:27:29;482.57;;;198.07;;
70457;SDS011;57919;56.194;95.716;2022-10-16T17:37:30;424.83;;;152.93;;
70457;SDS011;57919;56.194;95.716;2022-10-16T17:47:32;342.20;;;121.50;;
70457;SDS011;57919;56.194;95.716;2022-10-16T17:57:34;378.47;;;136.23;;
70457;SDS011;57919;56.194;95.716;2022-10-16T18:07:36;251.90;;;93.53;;
70457;SDS011;57919;56.194;95.716;2022-10-16T18:17:38;115.13;;;43.40;;
70457;SDS011;57919;56.194;95.716;2022-10-16T18:27:40;157.23;;;55.40;;
70457;SDS011;57919;56.194;95.716;2022-10-16T18:37:42;64.57;;;23.10;;
70457;SDS011;57919;56.194;95.716;2022-10-16T18:47:43;50.13;;;19.07;;
70457;SDS011;57919;56.194;95.716;2022-10-16T18:57:46;18.92;;;8.18;;
70457;SDS011;57919;56.194;95.716;2022-10-16T19:07:48;14.10;;;6.80;;
70457;SDS011;57919;56.194;95.716;2022-10-16T19:17:49;23.50;;;9.77;;
70457;SDS011;57919;56.194;95.716;2022-10-16T19:27:52;12.10;;;4.55;;
70457;SDS011;57919;56.194;95.716;2022-10-16T19:37:55;9.07;;;3.60;;
70457;SDS011;57919;56.194;95.716;2022-10-16T19:47:57;13.23;;;5.27;;
70457;SDS011;57919;56.194;95.716;2022-10-16T19:57:58;9.60;;;3.25;;
70457;SDS011;57919;56.194;95.716;2022-10-16T20:08:00;10.80;;;3.63;;
70457;SDS011;57919;56.194;95.716;2022-10-16T20:18:02;11.13;;;3.77;;
70457;SDS011;57919;56.194;95.716;2022-10-16T20:28:04;7.50;;;2.83;;
70457;SDS011;57919;56.194;95.716;2022-10-16T20:38:07;5.65;;;2.03;;
70457;SDS011;57919;56.194;95.716;2022-10-16T20:48:09;7.70;;;2.63;;
70457;SDS011;57919;56.194;95.716;2022-10-16T20:58:12;7.63;;;2.10;;
70457;SDS011;57919;56.194;95.716;2022-10-16T21:08:14;7.05;;;1.98;;
70457;SDS011;57919;56.194;95.716;2022-10-16T21:18:16;8.40;;;2.20;;
70457;SDS011;57919;56.194;95.716;2022-10-16T21:28:18;5.87;;;1.63;;
70457;SDS011;57919;56.194;95.716;2022-10-16T21:38:21;7.70;;;2.33;;
70457;SDS011;57919;56.194;95.716;2022-10-16T21:48:23;11.70;;;3.33;;
70457;SDS011;57919;56.194;95.716;2022-10-16T21:58:25;8.13;;;2.40;;
70457;SDS011;57919;56.194;95.716;2022-10-16T22:08:27;17.87;;;5.83;;
70457;SDS011;57919;56.194;95.716;2022-10-16T22:18:30;8.35;;;2.35;;
70457;SDS011;57919;56.194;95.716;2022-10-16T22:28:33;9.83;;;2.50;;
70457;SDS011;57919;56.194;95.716;2022-10-16T22:38:35;8.87;;;2.20;;
70457;SDS011;57919;56.194;95.716;2022-10-16T22:48:38;9.43;;;1.83;;
70457;SDS011;57919;56.194;95.716;2022-10-16T22:58:40;25.63;;;7.80;;
70457;SDS011;57919;56.194;95.716;2022-10-16T23:08:42;27.97;;;9.73;;
70457;SDS011;57919;56.194;95.716;2022-10-16T23:18:44;64.40;;;29.17;;
70457;SDS011;57919;56.194;95.716;2022-10-16T23:28:47;60.43;;;23.23;;
70457;SDS011;57919;56.194;95.716;2022-10-16T23:38:49;61.40;;;24.83;;
70457;SDS011;57919;56.194;95.716;2022-10-16T23:48:51;44.40;;;15.53;;
70457;SDS011;57919;56.194;95.716;2022-10-16T23:58:53;42.03;;;19.27;;
